createdAt,value
2019-03-23T00:00:22.216Z,39.00
2019-03-23T00:02:54.257Z,39.00
2019-03-23T00:05:25.835Z,39.00
2019-03-23T00:07:57.773Z,39.00
2019-03-23T00:10:29.240Z,39.00
2019-03-23T00:13:00.688Z,39.00
2019-03-23T00:15:32.484Z,39.00
2019-03-23T00:18:04.498Z,39.00
2019-03-23T00:20:36.255Z,38.90
2019-03-23T00:23:07.495Z,38.90
2019-03-23T00:25:39.157Z,38.80
2019-03-23T00:28:10.042Z,38.80
2019-03-23T00:30:41.458Z,38.90
2019-03-23T00:33:12.319Z,38.90
2019-03-23T00:35:45.610Z,38.80
2019-03-23T00:38:16.519Z,38.80
2019-03-23T00:40:48.570Z,38.80
2019-03-23T00:43:19.625Z,38.80
2019-03-23T00:45:50.714Z,38.80
2019-03-23T00:48:21.661Z,38.70
2019-03-23T00:50:52.830Z,38.80
2019-03-23T00:53:24.197Z,38.90
2019-03-23T00:55:55.230Z,38.70
2019-03-23T00:58:26.489Z,38.80
2019-03-23T01:00:57.486Z,38.70
2019-03-23T01:03:28.507Z,38.70
2019-03-23T01:05:59.469Z,38.70
2019-03-23T01:08:30.763Z,38.70
2019-03-23T01:11:01.845Z,38.70
2019-03-23T01:13:33.066Z,38.70
2019-03-23T01:16:04.811Z,38.70
2019-03-23T01:18:36.863Z,38.60
2019-03-23T01:21:08.504Z,38.60
2019-03-23T01:23:40.682Z,38.60
2019-03-23T01:26:12.793Z,38.60
2019-03-23T01:28:44.514Z,38.60
2019-03-23T01:31:15.998Z,38.60
2019-03-23T01:33:47.412Z,38.50
2019-03-23T01:36:18.861Z,38.50
2019-03-23T01:38:50.322Z,38.50
2019-03-23T01:41:22.074Z,38.50
2019-03-23T01:43:53.806Z,38.50
2019-03-23T01:46:25.276Z,38.50
2019-03-23T01:48:56.730Z,38.50
2019-03-23T01:51:27.627Z,38.50
2019-03-23T01:53:59.325Z,38.70
2019-03-23T01:56:30.010Z,38.50
2019-03-23T01:59:01.305Z,38.40
2019-03-23T02:01:32.193Z,38.40
2019-03-23T02:04:03.287Z,38.40
2019-03-23T02:06:34.886Z,38.40
2019-03-23T02:09:08.174Z,38.30
2019-03-23T02:11:39.209Z,38.40
2019-03-23T02:14:10.318Z,38.30
2019-03-23T02:16:41.723Z,38.30
2019-03-23T02:19:13.221Z,38.30
2019-03-23T02:21:44.826Z,38.30
2019-03-23T02:24:16.117Z,38.10
2019-03-23T02:26:46.975Z,38.10
2019-03-23T02:29:18.378Z,38.20
2019-03-23T02:31:49.299Z,38.10
2019-03-23T02:34:20.698Z,38.10
2019-03-23T02:36:51.597Z,38.00
2019-03-23T02:39:23.029Z,38.00
2019-03-23T02:41:53.846Z,38.00
2019-03-23T02:44:25.581Z,38.00
2019-03-23T02:46:57.343Z,38.00
2019-03-23T02:49:29.402Z,37.90
2019-03-23T02:52:01.466Z,37.90
2019-03-23T02:54:34.147Z,37.90
2019-03-23T02:57:06.212Z,37.90
2019-03-23T02:59:37.667Z,37.90
2019-03-23T03:02:09.477Z,37.90
2019-03-23T03:04:41.790Z,37.90
2019-03-23T03:07:13.853Z,37.90
2019-03-23T03:09:45.614Z,37.90
2019-03-23T03:12:17.131Z,38.60
2019-03-23T03:14:48.429Z,37.80
2019-03-23T03:17:20.273Z,37.90
2019-03-23T03:19:51.731Z,37.90
2019-03-23T03:22:23.809Z,37.80
2019-03-23T03:24:55.857Z,37.80
2019-03-23T03:27:27.349Z,37.80
2019-03-23T03:29:59.067Z,37.80
2019-03-23T03:32:30.868Z,37.70
2019-03-23T03:35:02.600Z,37.70
2019-03-23T03:37:34.647Z,37.70
2019-03-23T03:40:07.575Z,37.70
2019-03-23T03:42:38.943Z,37.70
2019-03-23T03:45:12.384Z,37.70
2019-03-23T03:47:44.442Z,37.70
2019-03-23T03:50:16.202Z,37.70
2019-03-23T03:52:47.765Z,37.70
2019-03-23T03:55:19.109Z,37.70
2019-03-23T03:57:50.552Z,37.70
2019-03-23T04:00:21.522Z,37.70
2019-03-23T04:02:52.840Z,37.70
2019-03-23T04:05:23.706Z,37.70
2019-03-23T04:07:55.127Z,37.70
2019-03-23T04:10:26.061Z,37.60
2019-03-23T04:12:57.419Z,37.60
2019-03-23T04:15:28.389Z,37.60
2019-03-23T04:17:59.706Z,37.60
2019-03-23T04:20:31.325Z,37.50
2019-03-23T04:23:02.930Z,37.50
2019-03-23T04:25:34.984Z,37.50
2019-03-23T04:28:06.429Z,37.50
2019-03-23T04:30:38.526Z,37.50
2019-03-23T04:33:10.559Z,37.50
2019-03-23T04:35:42.318Z,37.40
2019-03-23T04:38:22.674Z,37.50
2019-03-23T04:40:47.626Z,37.50
2019-03-23T04:43:19.198Z,37.40
2019-03-23T04:45:50.893Z,37.40
2019-03-23T04:48:22.672Z,37.40
2019-03-23T04:50:54.406Z,37.40
2019-03-23T04:53:26.182Z,37.40
2019-03-23T04:55:57.309Z,37.40
2019-03-23T04:58:28.754Z,37.40
2019-03-23T05:01:00.510Z,37.30
2019-03-23T05:03:32.886Z,37.30
2019-03-23T05:06:04.642Z,37.30
2019-03-23T05:08:36.397Z,37.30
2019-03-23T05:11:08.159Z,37.30
2019-03-23T05:13:39.909Z,37.30
2019-03-23T05:16:11.979Z,37.30
2019-03-23T05:18:43.126Z,37.90
2019-03-23T05:21:14.817Z,37.20
2019-03-23T05:23:46.270Z,37.20
2019-03-23T05:26:18.405Z,37.20
2019-03-23T05:28:49.925Z,37.20
2019-03-23T05:31:21.297Z,37.20
2019-03-23T05:33:54.039Z,37.10
2019-03-23T05:36:25.737Z,37.10
2019-03-23T05:38:57.494Z,37.10
2019-03-23T05:41:30.947Z,37.10
2019-03-23T05:44:03.399Z,37.10
2019-03-23T05:46:35.243Z,37.10
2019-03-23T05:49:08.525Z,37.10
2019-03-23T05:51:39.973Z,37.00
2019-03-23T05:54:11.447Z,37.00
2019-03-23T05:56:43.488Z,37.00
2019-03-23T05:59:15.251Z,36.90
2019-03-23T06:01:46.698Z,36.90
2019-03-23T06:04:18.453Z,36.90
2019-03-23T06:06:50.521Z,36.90
2019-03-23T06:09:22.594Z,36.90
2019-03-23T06:11:54.341Z,36.90
2019-03-23T06:14:26.414Z,36.90
2019-03-23T06:16:57.874Z,36.90
2019-03-23T06:19:29.822Z,37.00
2019-03-23T06:22:01.376Z,37.00
2019-03-23T06:24:33.445Z,37.00
2019-03-23T06:27:05.505Z,37.00
2019-03-23T06:29:37.213Z,37.00
2019-03-23T06:32:08.731Z,36.90
2019-03-23T06:34:40.310Z,37.00
2019-03-23T06:37:12.046Z,37.00
2019-03-23T06:39:43.681Z,36.90
2019-03-23T06:42:14.833Z,36.90
2019-03-23T06:44:46.582Z,37.00
2019-03-23T06:47:18.645Z,37.00
2019-03-23T06:49:50.542Z,37.00
2019-03-23T06:52:23.394Z,36.90
2019-03-23T06:54:55.198Z,36.90
2019-03-23T06:57:26.926Z,36.90
2019-03-23T06:59:58.979Z,36.90
2019-03-23T07:02:30.736Z,36.90
2019-03-23T07:05:01.888Z,37.00
2019-03-23T07:07:33.333Z,37.10
2019-03-23T07:10:05.421Z,37.00
2019-03-23T07:12:37.159Z,37.10
2019-03-23T07:15:19.409Z,37.20
2019-03-23T07:17:42.817Z,37.30
2019-03-23T07:20:14.882Z,37.40
2019-03-23T07:22:47.462Z,37.30
2019-03-23T07:25:19.034Z,37.20
2019-03-23T07:27:50.777Z,37.10
2019-03-23T07:30:22.568Z,37.00
2019-03-23T07:32:54.593Z,37.00
2019-03-23T07:35:26.354Z,36.90
2019-03-23T07:37:58.127Z,36.80
2019-03-23T07:40:29.781Z,36.80
2019-03-23T07:43:01.941Z,36.70
2019-03-23T07:45:32.821Z,36.70
2019-03-23T07:48:03.914Z,36.60
2019-03-23T07:50:34.782Z,36.60
2019-03-23T07:53:05.987Z,36.60
2019-03-23T07:55:36.745Z,36.60
2019-03-23T07:58:08.197Z,36.60
2019-03-23T08:00:43.645Z,35.70
2019-03-23T08:03:15.689Z,35.60
2019-03-23T08:05:46.545Z,35.60
2019-03-23T08:08:17.918Z,35.60
2019-03-23T08:10:48.822Z,35.50
2019-03-23T08:13:19.969Z,35.60
2019-03-23T08:15:51.085Z,35.60
2019-03-23T08:18:22.230Z,35.50
2019-03-23T08:20:53.694Z,35.50
2019-03-23T08:23:25.777Z,35.50
2019-03-23T08:25:56.944Z,35.50
2019-03-23T08:28:28.359Z,35.50
2019-03-23T08:30:59.201Z,35.50
2019-03-23T08:33:30.681Z,35.60
2019-03-23T08:36:01.570Z,35.50
2019-03-23T08:38:32.624Z,35.50
2019-03-23T08:41:03.482Z,35.50
2019-03-23T08:43:34.915Z,35.50
2019-03-23T08:46:05.762Z,35.50
2019-03-23T08:48:36.896Z,35.40
2019-03-23T08:51:07.773Z,35.50
2019-03-23T08:53:39.229Z,35.40
2019-03-23T08:56:10.147Z,35.50
2019-03-23T08:58:39.622Z,35.50
2019-03-23T09:01:10.410Z,35.40
2019-03-23T09:03:51.786Z,35.40
2019-03-23T09:06:14.297Z,35.40
2019-03-23T09:08:45.651Z,35.50
2019-03-23T09:11:20.619Z,35.50
2019-03-23T09:13:49.558Z,35.50
2019-03-23T09:16:20.409Z,35.60
2019-03-23T09:18:51.845Z,35.60
2019-03-23T09:21:23.174Z,35.60
2019-03-23T09:23:54.742Z,35.50
2019-03-23T09:26:26.826Z,35.60
2019-03-23T09:28:58.883Z,35.60
2019-03-23T09:31:30.641Z,35.70
2019-03-23T09:34:02.758Z,35.60
2019-03-23T09:36:34.150Z,35.60
2019-03-23T09:39:06.835Z,35.60
2019-03-23T09:41:38.467Z,35.60
2019-03-23T09:44:10.347Z,35.60
2019-03-23T09:46:41.799Z,35.60
2019-03-23T09:49:14.633Z,35.60
2019-03-23T09:51:46.722Z,35.60
2019-03-23T09:54:18.298Z,35.60
2019-03-23T09:56:49.478Z,35.60
2019-03-23T09:59:20.603Z,35.60
2019-03-23T10:01:51.447Z,35.60
2019-03-23T10:04:23.182Z,35.60
2019-03-23T10:06:54.018Z,35.60
2019-03-23T10:09:25.475Z,35.60
2019-03-23T10:11:56.332Z,35.60
2019-03-23T10:14:28.073Z,35.60
2019-03-23T10:16:59.277Z,35.60
2019-03-23T10:19:30.660Z,35.60
2019-03-23T10:22:02.117Z,35.60
2019-03-23T10:24:33.566Z,35.60
2019-03-23T10:27:05.318Z,35.60
2019-03-23T10:29:37.105Z,35.60
2019-03-23T10:32:08.833Z,35.60
2019-03-23T10:34:40.306Z,35.60
2019-03-23T10:37:11.738Z,35.70
2019-03-23T10:39:43.178Z,35.90
2019-03-23T10:42:16.283Z,36.00
2019-03-23T10:44:47.621Z,35.90
2019-03-23T10:47:19.418Z,35.30
2019-03-23T10:49:52.366Z,34.50
2019-03-23T10:52:23.815Z,34.50
2019-03-23T10:54:55.273Z,34.00
2019-03-23T10:57:27.030Z,34.00
2019-03-23T10:59:58.790Z,33.90
2019-03-23T11:02:30.544Z,33.80
2019-03-23T11:05:01.923Z,33.60
2019-03-23T11:07:33.302Z,33.60
2019-03-23T11:10:05.440Z,33.70
2019-03-23T11:12:37.181Z,33.60
2019-03-23T11:15:09.950Z,33.60
2019-03-23T11:17:41.704Z,33.60
2019-03-23T11:20:13.093Z,33.60
2019-03-23T11:22:44.638Z,33.60
2019-03-23T11:25:16.222Z,33.60
2019-03-23T11:27:48.130Z,33.60
2019-03-23T11:30:19.898Z,33.50
2019-03-23T11:32:51.333Z,33.50
2019-03-23T11:35:23.131Z,33.50
2019-03-23T11:37:55.293Z,33.60
2019-03-23T11:40:27.224Z,33.30
2019-03-23T11:42:58.762Z,33.30
2019-03-23T11:45:30.670Z,33.40
2019-03-23T11:48:02.190Z,33.40
2019-03-23T11:50:33.953Z,33.20
2019-03-23T11:53:06.020Z,33.30
2019-03-23T11:55:37.773Z,33.10
2019-03-23T11:58:09.226Z,33.00
2019-03-23T12:00:40.921Z,33.20
2019-03-23T12:03:12.432Z,33.00
2019-03-23T12:05:44.088Z,33.10
2019-03-23T12:08:15.574Z,33.10
2019-03-23T12:10:47.090Z,33.00
2019-03-23T12:13:18.851Z,33.00
2019-03-23T12:15:50.615Z,33.00
2019-03-23T12:18:22.109Z,33.00
2019-03-23T12:20:53.813Z,33.10
2019-03-23T12:23:25.265Z,33.20
2019-03-23T12:25:57.023Z,33.20
2019-03-23T12:28:28.197Z,33.20
2019-03-23T12:30:59.636Z,33.20
2019-03-23T12:33:30.471Z,33.20
2019-03-23T12:36:01.912Z,33.20
2019-03-23T12:38:32.761Z,33.20
2019-03-23T12:41:14.140Z,33.10
2019-03-23T12:43:36.892Z,33.10
2019-03-23T12:46:08.337Z,33.10
2019-03-23T12:48:39.267Z,33.20
2019-03-23T12:51:10.302Z,33.20
2019-03-23T12:53:41.178Z,33.20
2019-03-23T12:56:12.269Z,33.20
2019-03-23T12:58:43.094Z,33.20
2019-03-23T13:01:14.260Z,33.30
2019-03-23T13:03:45.031Z,33.30
2019-03-23T13:06:16.242Z,33.40
2019-03-23T13:08:47.072Z,33.40
2019-03-23T13:11:23.279Z,33.40
2019-03-23T13:13:51.533Z,33.50
2019-03-23T13:16:22.983Z,33.50
2019-03-23T13:18:53.858Z,33.50
2019-03-23T13:21:24.949Z,33.50
2019-03-23T13:23:56.710Z,33.50
2019-03-23T13:26:29.147Z,33.50
2019-03-23T13:29:01.011Z,33.60
2019-03-23T13:31:32.881Z,33.70
2019-03-23T13:34:03.869Z,33.70
2019-03-23T13:36:35.191Z,33.70
2019-03-23T13:39:07.381Z,33.80
2019-03-23T13:41:47.823Z,33.90
2019-03-23T13:44:18.813Z,34.00
2019-03-23T13:46:49.906Z,34.00
2019-03-23T13:49:20.850Z,34.10
2019-03-23T13:51:52.115Z,34.10
2019-03-23T13:54:23.340Z,34.20
2019-03-23T13:56:54.479Z,34.20
2019-03-23T13:59:25.301Z,34.30
2019-03-23T14:01:56.456Z,34.40
2019-03-23T14:04:27.311Z,34.50
2019-03-23T14:06:58.437Z,34.60
2019-03-23T14:09:29.370Z,34.60
2019-03-23T14:12:01.051Z,34.70
2019-03-23T14:14:31.985Z,34.80
2019-03-23T14:17:03.405Z,34.90
2019-03-23T14:19:34.463Z,34.90
2019-03-23T14:22:05.918Z,35.00
2019-03-23T14:24:37.362Z,35.00
2019-03-23T14:27:08.819Z,35.00
2019-03-23T14:29:40.583Z,35.00
2019-03-23T14:32:12.325Z,35.00
2019-03-23T14:34:44.050Z,35.10
2019-03-23T14:37:15.635Z,35.10
2019-03-23T14:39:47.085Z,35.20
2019-03-23T14:42:18.906Z,35.20
2019-03-23T14:44:52.506Z,35.30
2019-03-23T14:47:24.148Z,35.30
2019-03-23T14:49:56.121Z,35.30
2019-03-23T14:52:27.976Z,35.30
2019-03-23T14:54:59.382Z,35.40
2019-03-23T14:57:31.652Z,35.40
2019-03-23T15:00:03.039Z,35.50
2019-03-23T15:02:34.657Z,35.50
2019-03-23T15:05:06.397Z,35.50
2019-03-23T15:07:38.169Z,35.60
2019-03-23T15:10:10.335Z,35.70
2019-03-23T15:12:42.001Z,35.70
2019-03-23T15:15:13.552Z,35.70
2019-03-23T15:17:49.089Z,35.80
2019-03-23T15:20:18.215Z,35.80
2019-03-23T15:22:49.645Z,35.80
2019-03-23T15:25:21.200Z,35.90
2019-03-23T15:27:52.545Z,35.90
2019-03-23T15:30:24.598Z,35.90
2019-03-23T15:32:56.296Z,35.90
2019-03-23T15:35:28.127Z,36.00
2019-03-23T15:38:00.194Z,35.90
2019-03-23T15:40:31.643Z,35.90
2019-03-23T15:43:03.039Z,36.00
2019-03-23T15:45:34.546Z,36.00
2019-03-23T15:48:06.358Z,36.00
2019-03-23T15:50:37.598Z,36.00
2019-03-23T15:53:09.815Z,36.10
2019-03-23T15:55:41.302Z,36.10
2019-03-23T15:58:13.022Z,36.20
2019-03-23T16:00:44.644Z,36.20
2019-03-23T16:03:16.237Z,36.40
2019-03-23T16:05:49.842Z,36.40
2019-03-23T16:08:21.286Z,36.50
2019-03-23T16:10:52.748Z,36.50
2019-03-23T16:13:24.194Z,36.50
2019-03-23T16:15:55.871Z,36.60
2019-03-23T16:18:27.702Z,36.50
2019-03-23T16:20:59.462Z,36.50
2019-03-23T16:23:31.566Z,36.50
2019-03-23T16:26:03.283Z,36.60
2019-03-23T16:28:35.152Z,36.60
2019-03-23T16:31:06.800Z,36.60
2019-03-23T16:33:38.578Z,36.60
2019-03-23T16:36:10.136Z,36.70
2019-03-23T16:38:42.092Z,36.70
2019-03-23T16:41:13.244Z,36.70
2019-03-23T16:43:45.005Z,36.70
2019-03-23T16:46:16.433Z,36.80
2019-03-23T16:48:47.411Z,36.90
2019-03-23T16:51:18.730Z,37.10
2019-03-23T16:53:49.575Z,37.10
2019-03-23T16:56:20.730Z,37.20
2019-03-23T16:58:51.639Z,37.10
2019-03-23T17:01:22.985Z,37.10
2019-03-23T17:03:53.839Z,37.30
2019-03-23T17:06:25.210Z,37.30
2019-03-23T17:08:56.089Z,37.40
2019-03-23T17:11:27.254Z,37.40
2019-03-23T17:14:03.505Z,37.50
2019-03-23T17:16:34.765Z,37.60
2019-03-23T17:19:05.615Z,37.60
2019-03-23T17:21:36.813Z,37.70
2019-03-23T17:24:07.562Z,37.70
2019-03-23T17:26:38.731Z,37.70
2019-03-23T17:29:11.710Z,37.70
2019-03-23T17:31:43.466Z,37.70
2019-03-23T17:34:15.536Z,37.80
2019-03-23T17:36:47.295Z,37.70
2019-03-23T17:39:18.679Z,37.80
2019-03-23T17:41:50.206Z,37.70
2019-03-23T17:44:22.276Z,37.70
2019-03-23T17:46:54.022Z,37.80
2019-03-23T17:49:25.769Z,37.80
2019-03-23T17:51:57.544Z,37.80
2019-03-23T17:54:29.598Z,37.80
2019-03-23T17:57:01.966Z,37.80
2019-03-23T17:59:33.434Z,37.80
2019-03-23T18:02:05.172Z,37.80
2019-03-23T18:04:36.329Z,37.80
2019-03-23T18:07:08.402Z,37.80
2019-03-23T18:09:40.782Z,37.80
2019-03-23T18:12:12.538Z,37.80
2019-03-23T18:14:44.166Z,37.90
2019-03-23T18:17:16.044Z,37.90
2019-03-23T18:19:47.726Z,37.80
2019-03-23T18:22:19.266Z,37.80
2019-03-23T18:24:50.780Z,37.80
2019-03-23T18:27:22.451Z,37.90
2019-03-23T18:29:53.896Z,37.80
2019-03-23T18:32:25.658Z,37.90
2019-03-23T18:34:57.421Z,37.90
2019-03-23T18:37:29.487Z,37.80
2019-03-23T18:40:01.118Z,37.90
2019-03-23T18:42:32.995Z,37.90
2019-03-23T18:45:04.797Z,37.90
2019-03-23T18:47:36.294Z,38.00
2019-03-23T18:50:07.895Z,38.00
2019-03-23T18:52:39.413Z,37.90
2019-03-23T18:55:11.187Z,38.00
2019-03-23T18:57:42.940Z,38.00
2019-03-23T19:00:18.682Z,38.00
2019-03-23T19:02:50.449Z,38.00
2019-03-23T19:05:22.216Z,38.00
2019-03-23T19:07:53.666Z,38.00
2019-03-23T19:10:25.713Z,38.00
2019-03-23T19:12:57.480Z,37.90
2019-03-23T19:15:29.256Z,37.90
2019-03-23T19:18:00.686Z,37.90
2019-03-23T19:20:32.442Z,37.90
2019-03-23T19:23:06.365Z,37.90
2019-03-23T19:25:38.967Z,37.90
2019-03-23T19:28:10.725Z,38.00
2019-03-23T19:30:42.858Z,38.00
2019-03-23T19:33:14.172Z,38.00
2019-03-23T19:35:45.782Z,38.00
2019-03-23T19:38:18.643Z,38.00
2019-03-23T19:40:49.866Z,38.00
2019-03-23T19:43:20.871Z,38.00
2019-03-23T19:45:52.194Z,38.00
2019-03-23T19:48:23.023Z,38.00
2019-03-23T19:50:54.476Z,38.00
2019-03-23T19:53:26.918Z,38.10
2019-03-23T19:55:58.596Z,38.10
2019-03-23T19:58:29.524Z,38.00
2019-03-23T20:01:01.585Z,38.00
2019-03-23T20:03:32.538Z,38.00
2019-03-23T20:06:03.800Z,38.00
2019-03-23T20:08:34.679Z,38.00
2019-03-23T20:11:06.068Z,38.00
2019-03-23T20:13:36.967Z,38.00
2019-03-23T20:16:08.093Z,38.10
2019-03-23T20:18:39.409Z,38.10
2019-03-23T20:21:10.660Z,38.20
2019-03-23T20:23:41.621Z,38.10
2019-03-23T20:26:13.261Z,38.20
2019-03-23T20:28:45.302Z,38.20
2019-03-23T20:31:17.363Z,38.20
2019-03-23T20:33:49.122Z,38.20
2019-03-23T20:36:20.590Z,38.20
2019-03-23T20:38:52.367Z,38.20
2019-03-23T20:41:24.107Z,38.30
2019-03-23T20:43:56.710Z,38.30
2019-03-23T20:46:28.851Z,38.30
2019-03-23T20:49:01.977Z,38.30
2019-03-23T20:51:33.623Z,38.30
2019-03-23T20:54:05.352Z,38.30
2019-03-23T20:56:37.106Z,38.30
2019-03-23T20:59:08.571Z,38.40
2019-03-23T21:01:40.035Z,38.30
2019-03-23T21:04:12.063Z,38.40
2019-03-23T21:06:44.288Z,38.30
2019-03-23T21:09:15.900Z,38.30
2019-03-23T21:11:47.391Z,38.40
2019-03-23T21:14:20.421Z,38.30
2019-03-23T21:16:52.398Z,38.30
2019-03-23T21:19:23.886Z,38.30
2019-03-23T21:21:55.921Z,38.30
2019-03-23T21:24:26.823Z,38.40
2019-03-23T21:26:59.747Z,38.40
2019-03-23T21:29:31.521Z,38.40
2019-03-23T21:32:02.959Z,38.40
2019-03-23T21:34:34.419Z,38.50
2019-03-23T21:37:06.183Z,38.40
2019-03-23T21:39:37.886Z,38.40
2019-03-23T21:42:10.285Z,38.40
2019-03-23T21:44:41.913Z,38.50
2019-03-23T21:47:13.738Z,38.50
2019-03-23T21:49:45.860Z,38.50
2019-03-23T21:52:17.376Z,38.50
2019-03-23T21:54:48.775Z,38.50
2019-03-23T21:57:20.247Z,38.50
2019-03-23T21:59:51.667Z,38.50
2019-03-23T22:02:23.446Z,38.50
2019-03-23T22:04:55.489Z,38.50
2019-03-23T22:07:26.618Z,38.50
2019-03-23T22:09:57.795Z,38.60
2019-03-23T22:12:30.252Z,38.60
2019-03-23T22:15:01.854Z,38.70
2019-03-23T22:17:34.596Z,38.60
2019-03-23T22:20:08.523Z,38.60
2019-03-23T22:22:39.941Z,38.60
2019-03-23T22:25:11.958Z,38.70
2019-03-23T22:27:44.222Z,38.70
2019-03-23T22:30:15.832Z,38.80
2019-03-23T22:32:47.607Z,38.80
2019-03-23T22:35:19.735Z,38.80
2019-03-23T22:37:51.759Z,38.90
2019-03-23T22:40:22.926Z,38.90
2019-03-23T22:42:54.313Z,38.90
2019-03-23T22:45:26.058Z,38.80
2019-03-23T22:47:57.831Z,38.90
2019-03-23T22:50:29.595Z,38.80
2019-03-23T22:53:01.958Z,38.90
2019-03-23T22:55:33.415Z,38.90
2019-03-23T22:58:05.181Z,39.00
2019-03-23T23:00:42.694Z,38.90
2019-03-23T23:03:15.300Z,38.90
2019-03-23T23:05:47.201Z,38.90
2019-03-23T23:08:18.963Z,38.90
2019-03-23T23:10:50.606Z,38.90
2019-03-23T23:13:21.574Z,38.90
2019-03-23T23:15:53.001Z,38.90
2019-03-23T23:18:23.858Z,38.90
2019-03-23T23:20:54.982Z,38.90
2019-03-23T23:23:25.887Z,38.90
2019-03-23T23:25:57.270Z,38.90
2019-03-23T23:28:28.437Z,38.80
2019-03-23T23:31:00.296Z,39.00
2019-03-23T23:33:31.417Z,38.90
2019-03-23T23:36:02.773Z,39.00
2019-03-23T23:38:33.637Z,39.00
2019-03-23T23:41:05.356Z,39.00
2019-03-23T23:43:36.228Z,38.90
2019-03-23T23:46:07.655Z,38.90
2019-03-23T23:48:38.525Z,38.90
2019-03-23T23:51:09.618Z,38.90
2019-03-23T23:53:40.501Z,38.90
2019-03-23T23:56:11.606Z,39.00
2019-03-23T23:58:42.463Z,38.90
